Time;durP1;ratioP1;P1;durP2;ratioP2;P2;SDS_P1;SDS_P2;PMS_P1;PMS_P2;Temp;Humidity;BMP_temperature;BMP_pressure;BME280_temperature;BME280_humidity;BME280_pressure;Samples;Min_cycle;Max_cycle;Signal;HPM_P1;HPM_P2
2022/01/11 00:00:38;;;;;;;38.83;19.65;;;;;;;2.06;90.90;103092.78;5010328;28;20044;-84
2022/01/11 00:03:05;;;;;;;40.75;18.67;;;;;;;2.04;91.03;103090.16;5019529;28;20042;-84
2022/01/11 00:05:32;;;;;;;43.13;19.48;;;;;;;2.04;91.24;103090.16;5036937;28;20055;-83
2022/01/11 00:07:58;;;;;;;41.63;19.85;;;;;;;2.02;91.20;103086.66;5026991;28;20076;-84
2022/01/11 00:10:28;;;;;;;41.88;20.05;;;;;;;2.02;91.30;103098.69;5043972;28;20049;-83
2022/01/11 00:12:57;;;;;;;49.10;20.58;;;;;;;2.02;91.32;103096.09;5027259;28;20037;-84
2022/01/11 00:15:22;;;;;;;51.80;21.30;;;;;;;2.01;91.43;103090.06;4993442;28;20056;-84
2022/01/11 00:17:48;;;;;;;45.17;20.63;;;;;;;2.03;91.44;103093.56;5006461;28;20045;-84
2022/01/11 00:20:15;;;;;;;46.90;21.15;;;;;;;2.02;91.55;103093.50;5044185;28;20065;-83
2022/01/11 00:22:49;;;;;;;47.42;21.73;;;;;;;2.03;91.52;103106.47;5037380;28;20032;-84
2022/01/11 00:25:14;;;;;;;52.30;21.52;;;;;;;2.03;91.29;103116.81;5043385;28;20110;-83
2022/01/11 00:27:40;;;;;;;49.95;21.70;;;;;;;2.03;91.44;103128.88;5032153;28;20049;-83
2022/01/11 00:30:08;;;;;;;50.28;21.15;;;;;;;2.02;91.36;103124.53;5042965;28;20037;-84
2022/01/11 00:32:41;;;;;;;48.25;21.02;;;;;;;2.01;91.32;103128.81;5043531;28;20041;-84
2022/01/11 00:35:10;;;;;;;51.13;21.77;;;;;;;2.00;91.22;103121.91;5043414;28;20068;-83
2022/01/11 00:37:36;;;;;;;;;;;;;;;2.02;91.45;103124.53;5026309;28;20076;-84
2022/01/11 00:40:04;;;;;;;47.72;20.10;;;;;;;2.02;91.46;103125.44;5043513;28;19909;-83
2022/01/11 00:42:29;;;;;;;51.38;21.67;;;;;;;2.03;91.47;103132.34;5010102;28;20037;-84
2022/01/11 00:44:55;;;;;;;45.35;19.70;;;;;;;2.03;91.47;103127.16;5024446;28;20051;-84
2022/01/11 00:47:20;;;;;;;48.40;21.23;;;;;;;2.02;91.65;103125.44;5040897;28;20091;-84
2022/01/11 00:49:46;;;;;;;44.88;19.92;;;;;;;2.02;91.65;103127.09;5006983;28;20116;-84
2022/01/11 00:52:11;;;;;;;44.80;20.65;;;;;;;2.02;91.48;103119.34;4987848;28;20110;-84
2022/01/11 00:54:37;;;;;;;41.60;19.63;;;;;;;2.01;91.59;103125.38;5024549;28;20100;-84
2022/01/11 00:57:03;;;;;;;47.00;20.60;;;;;;;2.02;91.69;103117.69;5024089;28;20037;-83
2022/01/11 00:59:28;;;;;;;43.03;19.90;;;;;;;2.02;91.23;103127.09;4991621;28;20041;-83
2022/01/11 01:01:54;;;;;;;42.63;20.63;;;;;;;2.02;91.13;103125.44;5042228;28;20087;-84
2022/01/11 01:04:19;;;;;;;45.50;20.63;;;;;;;2.02;91.22;103124.53;5023550;28;20034;-84
2022/01/11 01:06:45;;;;;;;39.95;19.70;;;;;;;2.03;91.43;103127.16;5024379;28;20353;-84
2022/01/11 01:09:11;;;;;;;41.53;20.45;;;;;;;2.03;91.59;103127.16;5041617;28;20044;-83
2022/01/11 01:11:36;;;;;;;47.50;21.38;;;;;;;2.04;91.58;103128.94;5012686;28;20391;-83
2022/01/11 01:14:02;;;;;;;49.80;21.90;;;;;;;2.04;91.38;103126.34;5024342;28;20110;-83
2022/01/11 01:16:27;;;;;;;43.45;20.95;;;;;;;2.04;91.54;103125.47;5042052;28;20057;-83
2022/01/11 01:18:53;;;;;;;41.70;20.77;;;;;;;2.04;91.58;103125.47;5007832;28;20090;-83
2022/01/11 01:21:18;;;;;;;48.95;22.05;;;;;;;2.04;91.62;103123.75;5024631;28;20052;-83
2022/01/11 01:23:44;;;;;;;45.65;20.42;;;;;;;2.06;91.56;103128.97;5041930;28;20041;-84
2022/01/11 01:26:09;;;;;;;47.55;21.67;;;;;;;2.05;91.75;103133.25;5023827;28;20040;-84
2022/01/11 01:28:35;;;;;;;45.50;21.60;;;;;;;2.05;91.68;103130.66;5024130;28;20539;-83
2022/01/11 01:31:01;;;;;;;51.67;24.02;;;;;;;2.05;91.59;103125.50;5041370;28;20033;-84
2022/01/11 01:33:30;;;;;;;48.67;22.80;;;;;;;2.06;91.80;103132.44;5024119;28;20037;-83
2022/01/11 01:36:01;;;;;;;48.60;22.20;;;;;;;2.07;91.70;103138.47;5024041;28;20386;-83
2022/01/11 01:38:27;;;;;;;48.58;22.38;;;;;;;2.07;91.74;103130.72;5004436;28;20034;-83
2022/01/11 01:40:56;;;;;;;53.15;23.75;;;;;;;2.08;91.79;103135.06;5018544;28;20108;-84
2022/01/11 01:43:21;;;;;;;52.58;22.88;;;;;;;2.08;91.75;103137.66;5021186;28;20236;-83
2022/01/11 01:45:49;;;;;;;56.75;24.73;;;;;;;2.08;91.75;103132.50;5039540;28;20059;-83
2022/01/11 01:48:15;;;;;;;55.63;23.98;;;;;;;2.07;91.58;103135.88;5041921;28;20025;-82
2022/01/11 01:50:42;;;;;;;62.22;26.15;;;;;;;2.07;91.50;103129.03;5007450;28;20041;-83
2022/01/11 01:53:10;;;;;;;67.72;26.63;;;;;;;2.07;91.64;103136.78;5003972;28;20026;-84
2022/01/11 01:55:36;;;;;;;65.32;26.92;;;;;;;2.06;91.65;103139.31;5024067;28;20068;-84
2022/01/11 01:58:01;;;;;;;63.30;25.98;;;;;;;2.07;91.79;103135.88;5024076;28;20324;-84
2022/01/11 02:00:29;;;;;;;63.30;26.33;;;;;;;2.06;91.78;103147.06;5006645;28;20099;-83
2022/01/11 02:03:13;;;;;;;65.05;26.45;;;;;;;2.06;91.50;103145.38;4947447;28;20397;-83
2022/01/11 02:05:39;;;;;;;58.85;25.10;;;;;;;2.07;91.74;103146.22;4951207;28;20050;-84
2022/01/11 02:08:05;;;;;;;68.75;26.58;;;;;;;2.07;91.76;103149.72;4980374;28;20046;-84
2022/01/11 02:10:31;;;;;;;64.18;27.30;;;;;;;2.07;91.88;103144.53;4964206;28;20038;-84
2022/01/11 02:12:56;;;;;;;63.45;26.33;;;;;;;2.08;91.82;103154.03;4964570;28;20058;-84
2022/01/11 02:15:22;;;;;;;59.55;26.77;;;;;;;2.08;91.80;103151.44;4948405;28;20085;-84
2022/01/11 02:17:47;;;;;;;62.55;26.73;;;;;;;2.07;91.68;103151.41;4980088;28;20060;-83
2022/01/11 02:20:13;;;;;;;64.57;25.88;;;;;;;2.06;91.74;103141.91;4964489;28;20361;-83
2022/01/11 02:22:38;;;;;;;61.60;25.80;;;;;;;2.07;91.85;103147.13;4964721;28;20360;-83
2022/01/11 02:25:04;;;;;;;63.88;27.25;;;;;;;2.08;91.90;103153.16;4979667;28;20361;-83
2022/01/11 02:27:30;;;;;;;65.13;26.02;;;;;;;2.08;92.08;103168.69;4980579;28;20270;-84
2022/01/11 02:29:56;;;;;;;66.72;26.77;;;;;;;2.08;91.95;103163.50;4963428;28;20330;-83
2022/01/11 02:32:21;;;;;;;58.47;25.30;;;;;;;2.09;92.05;103173.00;4931939;28;20211;-83
2022/01/11 02:34:46;;;;;;;62.17;25.75;;;;;;;2.09;92.12;103160.97;5025926;28;20152;-83
2022/01/11 02:37:12;;;;;;;57.03;25.30;;;;;;;2.09;92.17;103158.41;5040898;28;20033;-83
2022/01/11 02:39:37;;;;;;;63.13;26.35;;;;;;;2.08;91.84;103161.78;5023425;28;20067;-84
2022/01/11 02:42:03;;;;;;;58.00;24.77;;;;;;;2.08;91.81;103155.75;5040816;28;20355;-82
2022/01/11 02:44:29;;;;;;;57.40;25.67;;;;;;;2.08;92.00;103155.75;5040912;28;20061;-84
2022/01/11 02:46:54;;;;;;;57.17;24.90;;;;;;;2.08;91.91;103156.63;5040789;28;20096;-82
2022/01/11 02:49:20;;;;;;;57.80;25.45;;;;;;;2.07;91.85;103153.97;5022761;28;20037;-83
2022/01/11 02:51:45;;;;;;;63.58;25.65;;;;;;;2.07;92.04;103154.88;5040621;28;20374;-84
2022/01/11 02:54:11;;;;;;;54.42;24.77;;;;;;;2.09;92.19;103160.06;5039771;28;20056;-82
2022/01/11 02:56:36;;;;;;;59.60;26.13;;;;;;;2.09;92.23;103160.97;5040847;28;20061;-84
2022/01/11 02:59:02;;;;;;;55.42;24.67;;;;;;;2.10;92.08;103156.69;5022368;28;20240;-84
2022/01/11 03:01:28;;;;;;;60.00;25.55;;;;;;;2.09;91.98;103153.22;5006748;28;20041;-84
2022/01/11 03:03:53;;;;;;;60.50;24.58;;;;;;;2.10;92.02;103159.25;5022555;28;20113;-83
2022/01/11 03:06:18;;;;;;;58.05;25.15;;;;;;;2.10;92.13;103164.44;5003214;28;20091;-84
2022/01/11 03:08:46;;;;;;;58.95;25.23;;;;;;;2.11;92.11;103177.41;5023101;28;20036;-84
2022/01/11 03:11:12;;;;;;;62.92;25.95;;;;;;;2.11;92.21;103187.75;5022784;28;20029;-83
2022/01/11 03:13:39;;;;;;;62.10;25.45;;;;;;;2.09;91.98;103189.41;5022960;28;20037;-83
2022/01/11 03:16:05;;;;;;;62.45;26.45;;;;;;;2.08;92.01;103187.66;5022873;28;20038;-83
2022/01/11 03:18:30;;;;;;;68.25;27.27;;;;;;;2.09;92.10;103186.81;5022815;28;20241;-83
2022/01/11 03:20:56;;;;;;;65.72;27.45;;;;;;;2.10;92.30;103185.13;5002965;28;20033;-84
2022/01/11 03:23:21;;;;;;;64.88;27.38;;;;;;;2.10;92.22;103187.69;5005941;28;20047;-83
2022/01/11 03:25:47;;;;;;;65.55;27.58;;;;;;;2.10;92.28;103185.13;5040881;28;20041;-83
2022/01/11 03:28:13;;;;;;;64.47;27.35;;;;;;;2.12;92.32;103183.44;5005463;28;20117;-83
2022/01/11 03:30:38;;;;;;;64.63;25.88;;;;;;;2.11;92.27;103182.59;4990176;28;20072;-83
2022/01/11 03:33:07;;;;;;;65.03;26.15;;;;;;;2.10;92.09;103180.81;5007430;28;20105;-84
2022/01/11 03:35:32;;;;;;;62.72;25.80;;;;;;;2.11;92.19;103179.09;5043423;28;20041;-84
2022/01/11 03:37:58;;;;;;;61.72;26.00;;;;;;;2.09;92.11;103179.06;5026566;28;20043;-84
2022/01/11 03:40:24;;;;;;;63.60;26.83;;;;;;;2.10;91.99;103182.53;5026214;28;20088;-84
2022/01/11 03:42:50;;;;;;;64.38;27.27;;;;;;;2.07;91.97;103175.56;5005964;28;20037;-84
2022/01/11 03:45:15;;;;;;;65.53;27.27;;;;;;;2.08;92.05;103184.19;5025460;28;20061;-83
2022/01/11 03:47:41;;;;;;;57.22;25.33;;;;;;;2.08;92.00;103184.19;5044384;28;20053;-83
2022/01/11 03:50:08;;;;;;;64.15;26.75;;;;;;;2.07;92.12;103180.75;5043782;28;20408;-84
2022/01/11 03:52:34;;;;;;;59.65;25.83;;;;;;;2.06;92.14;103178.97;4993785;28;20048;-84
2022/01/11 03:55:05;;;;;;;65.93;27.70;;;;;;;2.04;91.86;103170.28;5043824;28;20220;-84
2022/01/11 03:57:31;;;;;;;65.38;27.15;;;;;;;2.05;92.03;103166.00;5010639;28;20321;-84
2022/01/11 03:59:58;;;;;;;72.90;28.55;;;;;;;2.03;91.89;103157.31;5027152;28;20344;-83
2022/01/11 04:02:24;;;;;;;61.08;26.98;;;;;;;2.01;91.92;103159.84;5026926;28;20059;-84
2022/01/11 04:04:52;;;;;;;57.72;26.58;;;;;;;2.02;91.83;103160.72;5010289;28;20048;-83
2022/01/11 04:07:22;;;;;;;61.47;26.70;;;;;;;1.99;91.98;103164.09;5044204;28;20037;-83
2022/01/11 04:09:48;;;;;;;57.72;26.45;;;;;;;1.99;91.92;103164.09;5043700;28;20045;-83
2022/01/11 04:12:14;;;;;;;55.08;26.02;;;;;;;1.98;91.86;103161.44;5020297;28;20034;-82
2022/01/11 04:14:40;;;;;;;61.08;26.80;;;;;;;1.96;91.80;103163.13;5037425;28;20048;-83
2022/01/11 04:17:05;;;;;;;54.22;26.45;;;;;;;1.94;91.82;103160.47;5043729;28;20041;-83
2022/01/11 04:19:30;;;;;;;54.33;25.02;;;;;;;1.94;91.75;103165.63;5025845;28;20064;-84
2022/01/11 04:21:57;;;;;;;58.22;26.23;;;;;;;1.93;91.64;103161.31;5026009;28;20042;-84
2022/01/11 04:24:23;;;;;;;56.25;26.33;;;;;;;1.92;91.62;103164.72;5043579;28;20041;-83
2022/01/11 04:26:48;;;;;;;55.17;26.98;;;;;;;1.92;91.67;103170.75;5006497;28;20046;-83
2022/01/11 04:29:14;;;;;;;58.28;25.88;;;;;;;1.91;91.66;103176.78;5030805;28;20105;-83
2022/01/11 04:31:40;;;;;;;56.92;26.85;;;;;;;1.90;91.49;103180.16;5043884;28;20072;-84
2022/01/11 04:34:06;;;;;;;52.83;24.92;;;;;;;1.92;91.88;103185.41;5043347;28;20194;-83
2022/01/11 04:36:33;;;;;;;55.35;26.30;;;;;;;1.89;91.79;103190.44;5043202;28;20045;-84
2022/01/11 04:38:59;;;;;;;57.15;25.95;;;;;;;1.88;91.73;103180.97;5042848;28;20036;-84
2022/01/11 04:41:24;;;;;;;57.90;26.35;;;;;;;1.89;91.69;103177.53;5025843;28;20252;-84
2022/01/11 04:43:49;;;;;;;63.13;26.83;;;;;;;1.88;92.00;103170.63;5025153;28;20040;-84
2022/01/11 04:46:18;;;;;;;60.15;27.35;;;;;;;1.88;91.71;103170.63;5043351;28;20041;-84
2022/01/11 04:48:44;;;;;;;61.22;26.77;;;;;;;1.88;92.03;103178.38;5026410;28;20187;-84
2022/01/11 04:51:10;;;;;;;60.58;26.60;;;;;;;1.89;92.25;103178.44;5042506;28;20034;-83
2022/01/11 04:53:35;;;;;;;58.08;27.10;;;;;;;1.90;92.27;103176.72;5043328;28;20048;-84
2022/01/11 04:56:01;;;;;;;55.20;25.27;;;;;;;1.88;91.89;103178.38;5043012;28;20037;-84
2022/01/11 04:58:26;;;;;;;58.70;26.60;;;;;;;1.89;92.13;103169.78;5009581;28;20041;-84
2022/01/11 05:00:52;;;;;;;52.05;24.88;;;;;;;1.90;92.20;103174.13;5042306;28;20248;-84
2022/01/11 05:03:18;;;;;;;54.38;25.52;;;;;;;1.91;92.16;103170.69;5025067;28;20045;-83
2022/01/11 05:05:44;;;;;;;57.35;24.63;;;;;;;1.89;92.17;103167.19;5043022;28;20045;-83
2022/01/11 05:08:10;;;;;;;52.30;25.30;;;;;;;1.90;92.11;103168.97;5009004;28;20078;-84
2022/01/11 05:10:35;;;;;;;48.67;25.00;;;;;;;1.86;91.97;103173.16;5009027;28;20041;-83
2022/01/11 05:13:01;;;;;;;49.38;23.90;;;;;;;1.88;92.12;103174.06;5042470;28;20030;-83
2022/01/11 05:15:28;;;;;;;46.22;24.52;;;;;;;1.90;92.26;103176.72;5025168;28;20037;-84
2022/01/11 05:17:54;;;;;;;44.47;23.15;;;;;;;1.90;92.31;103179.28;5025480;28;20043;-84
2022/01/11 05:20:19;;;;;;;49.13;23.65;;;;;;;1.89;92.20;103177.53;5009242;28;20029;-84
2022/01/11 05:22:45;;;;;;;41.00;22.10;;;;;;;1.89;92.30;103177.53;5008918;28;20037;-84
2022/01/11 05:25:12;;;;;;;40.85;23.02;;;;;;;1.90;92.30;103181.88;5008256;28;20079;-83
2022/01/11 05:27:38;;;;;;;42.25;22.42;;;;;;;1.92;92.37;103185.41;5009197;28;20236;-84
2022/01/11 05:30:04;;;;;;;43.17;22.92;;;;;;;1.90;92.25;103193.09;5008532;28;20025;-84
2022/01/11 05:32:30;;;;;;;40.60;21.77;;;;;;;1.90;92.11;103190.50;5007995;28;20052;-83
2022/01/11 05:34:55;;;;;;;40.42;21.73;;;;;;;1.90;92.40;103187.06;5008588;28;20025;-84
2022/01/11 05:37:20;;;;;;;40.83;22.33;;;;;;;1.90;92.44;103187.06;5024686;28;20268;-83
2022/01/11 05:39:46;;;;;;;40.22;21.92;;;;;;;1.92;92.44;103185.41;5024811;28;20044;-84
2022/01/11 05:42:12;;;;;;;43.58;21.48;;;;;;;1.93;92.57;103187.16;5006437;28;20095;-83
2022/01/11 05:44:37;;;;;;;36.25;21.08;;;;;;;1.95;92.70;103188.09;5021949;28;20042;-84
2022/01/11 05:47:03;;;;;;;44.92;21.13;;;;;;;1.95;92.61;103189.78;5024111;28;20029;-83
2022/01/11 05:49:28;;;;;;;42.15;20.95;;;;;;;1.94;92.77;103196.66;5042346;28;20047;-84
2022/01/11 05:51:54;;;;;;;39.92;21.15;;;;;;;1.96;92.59;103194.13;5007395;28;20075;-84
2022/01/11 05:54:19;;;;;;;40.75;21.02;;;;;;;1.96;92.72;103197.56;5042272;28;20049;-84
2022/01/11 05:56:44;;;;;;;42.90;22.15;;;;;;;1.94;92.55;103194.06;5024140;28;20043;-84
2022/01/11 05:59:10;;;;;;;37.95;20.67;;;;;;;1.91;92.45;103202.63;5024705;28;20344;-83
2022/01/11 06:01:35;;;;;;;45.72;21.30;;;;;;;1.89;92.27;103200.78;5023931;28;20045;-82
2022/01/11 06:04:01;;;;;;;39.20;20.83;;;;;;;1.90;92.27;103203.44;5042236;28;20052;-84
2022/01/11 06:06:26;;;;;;;37.28;20.98;;;;;;;1.91;92.59;103201.72;5024599;28;20045;-84
2022/01/11 06:08:51;;;;;;;39.17;21.60;;;;;;;1.88;92.34;103197.34;5024139;28;20100;-84
2022/01/11 06:11:17;;;;;;;41.95;20.58;;;;;;;1.88;92.41;103184.41;5041857;28;20090;-84
2022/01/11 06:13:42;;;;;;;39.42;21.23;;;;;;;1.89;92.48;103183.59;5042214;28;20064;-84
2022/01/11 06:16:08;;;;;;;37.35;20.88;;;;;;;1.90;92.64;103187.06;4988290;28;20065;-84
2022/01/11 06:18:34;;;;;;;37.15;20.33;;;;;;;1.90;92.42;103190.50;5024312;28;20036;-84
2022/01/11 06:20:59;;;;;;;34.30;19.95;;;;;;;1.91;92.69;103193.97;5024467;28;20393;-84
2022/01/11 06:23:25;;;;;;;38.20;19.27;;;;;;;1.92;92.56;103206.94;5042047;28;20029;-84
2022/01/11 06:25:50;;;;;;;37.00;20.25;;;;;;;1.94;92.51;103217.31;5041405;28;20263;-84
2022/01/11 06:28:15;;;;;;;41.60;19.42;;;;;;;1.94;92.43;103212.16;5023947;28;20079;-83
2022/01/11 06:30:41;;;;;;;39.33;20.05;;;;;;;1.94;92.42;103216.47;5042045;28;20031;-83
2022/01/11 06:33:08;;;;;;;34.58;19.52;;;;;;;1.93;92.20;103215.59;5019943;28;20044;-83
2022/01/11 06:35:33;;;;;;;33.17;18.67;;;;;;;1.92;92.23;103221.56;5019652;28;20136;-84
2022/01/11 06:37:59;;;;;;;32.95;18.30;;;;;;;1.93;92.24;103213.00;5041335;28;20356;-84
2022/01/11 06:40:24;;;;;;;33.33;18.92;;;;;;;1.95;92.39;103224.28;5006995;28;20044;-84
2022/01/11 06:42:53;;;;;;;27.85;17.25;;;;;;;1.96;92.30;103228.59;5041648;28;20060;-83
2022/01/11 06:45:18;;;;;;;32.05;17.70;;;;;;;1.96;92.20;103225.13;5041125;28;20053;-84
2022/01/11 06:47:44;;;;;;;31.65;18.05;;;;;;;1.95;91.91;103228.53;5023848;28;20350;-84
2022/01/11 06:50:10;;;;;;;32.15;17.48;;;;;;;1.93;91.59;103233.69;5023273;28;20298;-84
2022/01/11 06:52:36;;;;;;;29.83;17.60;;;;;;;1.95;92.04;103233.72;5007042;28;20025;-84
2022/01/11 06:55:02;;;;;;;31.65;17.52;;;;;;;1.96;92.26;103238.06;5006400;28;20017;-84
2022/01/11 06:57:28;;;;;;;26.13;16.42;;;;;;;1.95;92.32;103234.59;4990294;28;20049;-83
2022/01/11 06:59:54;;;;;;;32.65;17.40;;;;;;;1.96;92.25;103241.50;5041262;28;20036;-84
2022/01/11 07:02:19;;;;;;;33.95;18.08;;;;;;;1.98;92.44;103236.41;5023522;28;20045;-84
2022/01/11 07:04:44;;;;;;;36.92;18.48;;;;;;;1.99;92.47;103241.63;5036554;28;20033;-83
2022/01/11 07:07:10;;;;;;;30.52;17.80;;;;;;;2.00;92.50;103239.91;5043683;28;20299;-83
2022/01/11 07:09:35;;;;;;;28.65;16.30;;;;;;;1.99;92.46;103241.63;5044328;28;20033;-83
2022/01/11 07:12:01;;;;;;;30.88;17.70;;;;;;;1.99;92.31;103245.94;5026589;28;20064;-83
2022/01/11 07:14:27;;;;;;;28.60;16.77;;;;;;;1.98;92.19;103241.56;5045472;28;20040;-84
2022/01/11 07:16:52;;;;;;;33.33;16.10;;;;;;;1.96;92.17;103244.09;5026938;28;20363;-84
2022/01/11 07:19:18;;;;;;;30.80;16.20;;;;;;;1.95;92.13;103247.53;5044860;28;20107;-84
2022/01/11 07:21:46;;;;;;;27.80;16.73;;;;;;;1.98;92.19;103251.91;5011092;28;20037;-84
2022/01/11 07:24:12;;;;;;;32.23;17.97;;;;;;;1.99;92.23;103251.09;5011115;28;20044;-83
2022/01/11 07:26:38;;;;;;;30.77;17.25;;;;;;;1.99;92.68;103251.97;5010628;28;20033;-84
2022/01/11 07:29:05;;;;;;;29.73;16.55;;;;;;;1.98;92.48;103255.38;5034696;28;20046;-83
2022/01/11 07:31:31;;;;;;;28.85;16.15;;;;;;;1.99;92.50;103261.44;5025121;28;20069;-84
2022/01/11 07:33:57;;;;;;;28.67;16.80;;;;;;;1.98;92.26;103270.88;5013811;28;20037;-83
2022/01/11 07:36:22;;;;;;;26.58;16.17;;;;;;;1.98;92.27;103280.34;5038130;28;20040;-83
2022/01/11 07:38:47;;;;;;;33.22;15.57;;;;;;;1.96;92.05;103279.41;5021737;28;20051;-83
2022/01/11 07:41:13;;;;;;;30.52;14.93;;;;;;;1.96;92.27;103282.00;5023796;28;20048;-83
2022/01/11 07:43:38;;;;;;;27.55;15.93;;;;;;;1.96;92.27;103279.41;5025504;28;20038;-84
2022/01/11 07:46:04;;;;;;;28.83;15.80;;;;;;;1.95;92.30;103278.53;4993405;28;20236;-84
2022/01/11 07:48:29;;;;;;;26.63;14.13;;;;;;;1.95;92.11;103283.72;4997988;28;20358;-84
2022/01/11 07:50:54;;;;;;;32.35;15.52;;;;;;;1.94;92.08;103281.94;5039926;28;20060;-83
2022/01/11 07:53:20;;;;;;;23.45;14.20;;;;;;;1.94;91.86;103287.09;4995478;28;20034;-83
2022/01/11 07:55:45;;;;;;;28.33;15.20;;;;;;;1.94;91.94;103288.81;5015945;28;20048;-84
2022/01/11 07:58:11;;;;;;;29.90;14.55;;;;;;;1.92;91.85;103289.63;5039377;28;20038;-83
2022/01/11 08:00:36;;;;;;;26.17;14.60;;;;;;;1.92;91.90;103287.06;5020096;28;20036;-83
2022/01/11 08:03:02;;;;;;;28.20;14.60;;;;;;;1.90;91.94;103280.97;5021466;28;20104;-84
2022/01/11 08:05:27;;;;;;;23.95;14.40;;;;;;;1.87;91.69;103286.03;5033278;28;20169;-84
2022/01/11 08:07:53;;;;;;;23.88;15.13;;;;;;;1.85;91.64;103279.91;5014236;28;20040;-83
2022/01/11 08:10:18;;;;;;;22.70;13.95;;;;;;;1.86;91.84;103285.97;5039665;28;20052;-83
2022/01/11 08:12:44;;;;;;;27.23;14.30;;;;;;;1.85;92.01;103289.38;5010151;28;20319;-84
2022/01/11 08:15:10;;;;;;;25.15;14.43;;;;;;;1.86;91.88;103293.72;5020465;28;20029;-83
2022/01/11 08:17:35;;;;;;;21.83;13.10;;;;;;;1.85;91.98;103291.97;4997923;28;20411;-84
2022/01/11 08:20:01;;;;;;;23.42;14.10;;;;;;;1.86;92.05;103299.78;5035585;28;20045;-83
2022/01/11 08:22:26;;;;;;;22.50;13.65;;;;;;;1.86;92.05;103299.78;5037822;28;20033;-83
2022/01/11 08:24:51;;;;;;;25.83;14.32;;;;;;;1.86;91.95;103294.59;5018380;28;20063;-84
2022/01/11 08:27:19;;;;;;;25.80;13.63;;;;;;;1.87;92.03;103298.06;5004008;28;20037;-84
2022/01/11 08:29:45;;;;;;;24.13;13.82;;;;;;;1.86;91.96;103311.81;5036445;28;20041;-84
2022/01/11 08:32:11;;;;;;;25.20;12.57;;;;;;;1.87;91.94;103313.56;5038887;28;20033;-83
2022/01/11 08:34:36;;;;;;;26.25;13.73;;;;;;;1.84;91.97;103311.78;5016835;28;20037;-84
2022/01/11 08:37:02;;;;;;;25.00;13.88;;;;;;;1.84;92.00;103306.59;5020855;28;20252;-83
2022/01/11 08:39:27;;;;;;;19.92;12.43;;;;;;;1.85;92.07;103305.75;5032419;28;20033;-83
2022/01/11 08:41:52;;;;;;;23.08;13.98;;;;;;;1.84;91.87;103306.59;5035980;28;20042;-84
2022/01/11 08:44:22;;;;;;;22.98;12.93;;;;;;;1.84;91.96;103303.16;5038105;28;20288;-84
2022/01/11 08:46:48;;;;;;;23.65;12.38;;;;;;;1.82;92.03;103304.75;5021293;28;20060;-82
2022/01/11 08:49:13;;;;;;;21.90;13.80;;;;;;;1.84;91.76;103308.31;5003427;28;20037;-83
2022/01/11 08:51:39;;;;;;;27.60;13.32;;;;;;;1.85;91.98;103310.91;5039153;28;20052;-84
2022/01/11 08:54:04;;;;;;;23.98;13.57;;;;;;;1.84;91.99;103316.94;5022017;28;20348;-84
2022/01/11 08:56:30;;;;;;;27.98;14.02;;;;;;;1.86;92.21;103314.41;5021856;28;20041;-83
2022/01/11 08:58:56;;;;;;;24.15;13.45;;;;;;;1.86;92.25;103319.56;5018896;28;20038;-83
2022/01/11 09:01:21;;;;;;;22.02;13.38;;;;;;;1.87;92.37;103322.22;5020056;28;20390;-83
2022/01/11 09:03:47;;;;;;;22.42;13.52;;;;;;;1.88;92.48;103312.75;5001867;28;20041;-82
2022/01/11 09:06:12;;;;;;;22.10;11.93;;;;;;;1.88;92.58;103307.59;5018933;28;20033;-83
2022/01/11 09:08:38;;;;;;;19.60;12.27;;;;;;;1.88;92.36;103307.59;5021783;28;20037;-83
2022/01/11 09:11:04;;;;;;;23.48;13.40;;;;;;;1.88;92.14;103312.75;5004327;28;20056;-83
2022/01/11 09:13:30;;;;;;;23.05;12.43;;;;;;;1.87;91.93;103318.72;5019896;28;20025;-83
2022/01/11 09:15:56;;;;;;;21.75;12.98;;;;;;;1.87;91.53;103321.31;5022600;28;20068;-84
2022/01/11 09:18:21;;;;;;;19.17;12.13;;;;;;;1.87;91.78;103322.22;5031146;28;20033;-83
2022/01/11 09:20:47;;;;;;;22.10;12.93;;;;;;;1.87;91.72;103322.22;4995758;28;20033;-82
2022/01/11 09:23:15;;;;;;;26.67;12.68;;;;;;;1.88;91.82;103325.69;4945576;28;21101;-83
2022/01/11 09:25:40;;;;;;;23.55;12.73;;;;;;;1.86;91.56;103325.63;4963325;28;20411;-82
2022/01/11 09:28:06;;;;;;;24.65;13.23;;;;;;;1.88;91.81;103316.22;4996587;28;20470;-83
2022/01/11 09:30:31;;;;;;;23.63;12.93;;;;;;;1.89;92.06;103324.81;5001310;28;20071;-83
2022/01/11 09:32:57;;;;;;;21.60;11.60;;;;;;;1.90;92.08;103322.31;5004096;28;20037;-83
2022/01/11 09:35:22;;;;;;;25.23;13.50;;;;;;;1.91;92.14;103318.91;5022344;28;20040;-83
2022/01/11 09:37:49;;;;;;;19.83;12.18;;;;;;;1.92;92.12;103320.66;5031141;28;20371;-83
2022/01/11 09:40:15;;;;;;;21.58;12.00;;;;;;;1.92;92.14;103314.59;5041028;28;20248;-83
2022/01/11 09:42:41;;;;;;;23.15;12.85;;;;;;;1.93;92.10;103329.31;5007434;28;20112;-83
2022/01/11 09:45:07;;;;;;;23.05;13.20;;;;;;;1.95;92.09;103337.09;5024914;28;20352;-83
2022/01/11 09:47:33;;;;;;;27.88;13.98;;;;;;;1.95;92.01;103338.00;5003319;28;20045;-83
2022/01/11 09:49:58;;;;;;;25.67;13.70;;;;;;;1.96;92.20;103334.56;4994417;28;20049;-82
2022/01/11 09:52:25;;;;;;;21.73;13.40;;;;;;;1.97;92.34;103328.56;5031135;28;20045;-84
2022/01/11 09:54:50;;;;;;;25.00;12.35;;;;;;;1.98;92.36;103337.19;5039524;28;20361;-83
2022/01/11 09:57:16;;;;;;;21.30;12.75;;;;;;;2.00;92.49;103328.69;5007271;28;20295;-82
2022/01/11 09:59:41;;;;;;;20.77;12.07;;;;;;;2.03;92.43;103333.06;5038976;28;20360;-83
2022/01/11 10:02:07;;;;;;;28.33;13.43;;;;;;;2.04;92.46;103334.84;5013663;28;20042;-83
2022/01/11 10:04:34;;;;;;;25.40;13.25;;;;;;;2.07;92.65;103338.44;5030620;28;20114;-83
2022/01/11 10:07:07;;;;;;;22.25;13.20;;;;;;;2.10;92.71;103333.34;5000790;28;20042;-83
2022/01/11 10:09:48;;;;;;;21.23;13.15;;;;;;;2.13;92.90;103326.50;5034080;28;20399;-83
2022/01/11 10:12:13;;;;;;;28.90;12.98;;;;;;;2.15;93.03;103325.75;5001996;28;20380;-83
2022/01/11 10:14:43;;;;;;;18.77;12.55;;;;;;;2.17;92.83;103333.56;5013281;28;20034;-83
2022/01/11 10:17:27;;;;;;;21.13;12.65;;;;;;;2.18;92.82;103331.00;5015115;28;20029;-83
2022/01/11 10:20:15;;;;;;;25.42;13.63;;;;;;;2.21;92.79;103330.25;5003668;28;20052;-84
2022/01/11 10:22:51;;;;;;;25.00;12.93;;;;;;;2.24;93.09;103338.13;5018239;28;20221;-82
2022/01/11 10:25:17;;;;;;;23.92;13.63;;;;;;;2.27;93.13;103338.19;5018814;28;20065;-84
2022/01/11 10:27:42;;;;;;;23.70;14.05;;;;;;;2.29;93.18;103341.72;5004130;28;20100;-83
2022/01/11 10:30:17;;;;;;;23.35;13.43;;;;;;;2.32;93.28;103348.72;5019722;28;20047;-83
2022/01/11 10:32:45;;;;;;;25.17;13.27;;;;;;;2.35;93.35;103349.69;5016783;28;20137;-83
2022/01/11 10:35:17;;;;;;;25.13;12.90;;;;;;;2.37;93.20;103362.69;5028764;28;20049;-84
2022/01/11 10:37:44;;;;;;;23.08;13.45;;;;;;;2.38;92.97;103365.28;5042730;28;20064;-83
2022/01/11 10:40:19;;;;;;;20.60;12.80;;;;;;;2.41;92.84;103361.97;5029286;28;20046;-83
2022/01/11 10:42:56;;;;;;;23.75;13.68;;;;;;;2.43;92.96;103366.34;5022335;28;20041;-83
2022/01/11 10:45:59;;;;;;;22.20;13.27;;;;;;;2.46;93.27;103365.56;4994294;28;20041;-83
2022/01/11 10:48:25;;;;;;;25.52;11.88;;;;;;;2.48;93.09;103369.09;5024316;28;20041;-83
2022/01/11 10:50:53;;;;;;;29.05;13.90;;;;;;;2.50;93.08;103372.59;5026407;28;20229;-82
2022/01/11 10:53:20;;;;;;;24.42;13.20;;;;;;;2.50;92.91;103362.25;5043341;28;20037;-83
2022/01/11 10:56:04;;;;;;;20.98;12.65;;;;;;;2.52;92.75;103364.91;5015220;28;20045;-83
2022/01/11 10:58:33;;;;;;;26.00;13.68;;;;;;;2.53;92.67;103362.38;5040845;28;20121;-83
2022/01/11 11:00:58;;;;;;;23.10;12.48;;;;;;;2.57;92.64;103360.75;5024856;28;20236;-83
2022/01/11 11:03:26;;;;;;;27.42;13.35;;;;;;;2.58;92.48;103354.75;5044528;28;20041;-82
2022/01/11 11:05:59;;;;;;;21.58;13.48;;;;;;;2.59;92.41;103352.22;5029917;28;20079;-83
2022/01/11 11:08:27;;;;;;;22.27;13.05;;;;;;;2.64;92.79;103353.25;5005986;28;20104;-83
2022/01/11 11:10:55;;;;;;;24.15;12.93;;;;;;;2.66;92.78;103358.47;5028698;28;20052;-83
2022/01/11 11:13:37;;;;;;;23.47;12.83;;;;;;;2.68;92.97;103357.69;5036623;28;20083;-83